Time;durP1;ratioP1;P1;durP2;ratioP2;P2;SDS_P1;SDS_P2;PMS_P1;PMS_P2;Temp;Humidity;BMP_temperature;BMP_pressure;BME280_temperature;BME280_humidity;BME280_pressure;Samples;Min_cycle;Max_cycle;Signal;HPM_P1;HPM_P2
2022/04/09 00:00:34;;;;;;;26.10;14.75;;;4.10;99.90;;;;;;5084939;28;20507;-79
2022/04/09 00:03:00;;;;;;;29.75;15.25;;;4.10;99.90;;;;;;5090893;28;20024;-78
2022/04/09 00:05:25;;;;;;;22.17;14.10;;;4.00;99.90;;;;;;5091073;28;20496;-78
2022/04/09 00:07:51;;;;;;;25.15;13.57;;;3.90;99.90;;;;;;5085691;28;20024;-78
2022/04/09 00:10:18;;;;;;;23.10;13.07;;;3.90;99.90;;;;;;5082292;28;20043;-78
2022/04/09 00:12:47;;;;;;;24.00;13.55;;;3.80;99.90;;;;;;5090751;28;20032;-78
2022/04/09 00:15:14;;;;;;;23.42;13.70;;;3.80;99.90;;;;;;5092564;28;20052;-78
2022/04/09 00:17:41;;;;;;;23.85;13.57;;;3.70;99.90;;;;;;5095039;28;20512;-78
2022/04/09 00:20:08;;;;;;;25.40;15.07;;;3.70;99.90;;;;;;5094718;28;20574;-79
2022/04/09 00:22:35;;;;;;;28.15;14.15;;;3.70;99.90;;;;;;5091424;28;20023;-78
2022/04/09 00:25:01;;;;;;;25.83;14.10;;;3.60;99.90;;;;;;5074485;28;20020;-78
2022/04/09 00:27:27;;;;;;;25.75;14.20;;;3.60;99.90;;;;;;5074574;28;20054;-77
2022/04/09 00:29:52;;;;;;;25.40;14.30;;;3.60;99.90;;;;;;5082364;28;20039;-79
2022/04/09 00:32:19;;;;;;;25.83;12.60;;;3.60;99.90;;;;;;5093301;28;20042;-79
2022/04/09 00:34:44;;;;;;;22.30;13.55;;;3.60;99.90;;;;;;5094614;28;20102;-77
2022/04/09 00:37:10;;;;;;;24.95;13.60;;;3.50;99.90;;;;;;5093504;28;20067;-79
2022/04/09 00:39:36;;;;;;;25.52;13.43;;;3.40;99.90;;;;;;5081722;28;20040;-78
2022/04/09 00:42:01;;;;;;;26.77;13.18;;;3.40;99.90;;;;;;5094573;28;20521;-78
2022/04/09 00:44:27;;;;;;;24.50;12.80;;;3.40;99.90;;;;;;5094571;28;20058;-78
2022/04/09 00:46:53;;;;;;;22.08;10.93;;;3.30;99.90;;;;;;5094461;28;20101;-78
2022/04/09 00:49:18;;;;;;;27.60;13.52;;;3.30;99.90;;;;;;5094222;28;20488;-78
2022/04/09 00:51:45;;;;;;;26.02;13.90;;;3.30;99.90;;;;;;5094437;28;20078;-78
2022/04/09 00:54:12;;;;;;;27.30;14.25;;;3.20;99.90;;;;;;5081082;28;20040;-77
2022/04/09 00:56:39;;;;;;;18.52;11.85;;;3.20;99.90;;;;;;5073883;28;20036;-78
2022/04/09 00:59:06;;;;;;;23.58;12.02;;;3.20;99.90;;;;;;5074765;28;20077;-77
2022/04/09 01:01:37;;;;;;;19.25;10.90;;;3.10;99.90;;;;;;5093425;28;20070;-78
2022/04/09 01:04:10;;;;;;;21.88;10.23;;;3.00;99.90;;;;;;5091206;28;20090;-79
2022/04/09 01:06:37;;;;;;;13.77;7.43;;;2.90;99.90;;;;;;5091112;28;20020;-78
2022/04/09 01:09:05;;;;;;;13.90;6.72;;;2.80;99.90;;;;;;5082970;28;20074;-78
2022/04/09 01:11:32;;;;;;;9.43;5.82;;;2.70;99.90;;;;;;5092200;28;20016;-78
2022/04/09 01:13:58;;;;;;;9.38;5.68;;;2.60;99.90;;;;;;5091296;28;20180;-79
2022/04/09 01:16:28;;;;;;;11.57;6.40;;;2.50;99.90;;;;;;5090544;28;20516;-79
2022/04/09 01:18:57;;;;;;;9.63;6.22;;;2.40;99.90;;;;;;5085568;28;20032;-78
2022/04/09 01:21:27;;;;;;;8.90;5.53;;;2.40;99.90;;;;;;5093061;28;20027;-79
2022/04/09 01:23:54;;;;;;;8.00;5.32;;;2.40;99.90;;;;;;5084851;28;20052;-79
2022/04/09 01:26:20;;;;;;;11.07;6.28;;;2.30;99.90;;;;;;5074999;28;20126;-78
2022/04/09 01:28:47;;;;;;;10.73;5.50;;;2.30;99.90;;;;;;5075775;28;20028;-79
2022/04/09 01:31:13;;;;;;;11.23;5.80;;;2.30;99.90;;;;;;5094338;28;20058;-79
2022/04/09 01:33:39;;;;;;;9.93;5.65;;;2.20;99.90;;;;;;5095714;28;20020;-79
2022/04/09 01:36:05;;;;;;;9.20;5.13;;;2.10;99.90;;;;;;5094207;28;20070;-78
2022/04/09 01:38:34;;;;;;;13.18;5.85;;;2.20;99.90;;;;;;5092788;28;20054;-78
2022/04/09 01:40:59;;;;;;;9.07;5.63;;;2.20;99.90;;;;;;5093850;28;20084;-78
2022/04/09 01:43:25;;;;;;;15.38;6.85;;;2.20;99.90;;;;;;5093419;28;20099;-78
2022/04/09 01:45:51;;;;;;;9.30;5.45;;;2.30;99.90;;;;;;5078325;28;20079;-79
2022/04/09 01:48:16;;;;;;;11.57;6.15;;;2.30;99.90;;;;;;5070202;28;20020;-77
2022/04/09 01:50:42;;;;;;;13.25;5.82;;;2.40;99.90;;;;;;5077550;28;20053;-78
2022/04/09 01:53:08;;;;;;;13.50;6.30;;;2.50;99.90;;;;;;5091682;28;20397;-79
2022/04/09 01:55:34;;;;;;;11.30;6.13;;;2.50;99.90;;;;;;5081271;28;20034;-78
2022/04/09 01:58:00;;;;;;;16.15;6.65;;;2.50;99.90;;;;;;5080744;28;20044;-78
2022/04/09 02:00:26;;;;;;;10.73;6.20;;;2.50;99.90;;;;;;5083432;28;20035;-79
2022/04/09 02:02:52;;;;;;;12.73;6.30;;;2.50;99.90;;;;;;5090852;28;20020;-78
2022/04/09 02:05:18;;;;;;;13.80;6.20;;;2.60;99.90;;;;;;5091671;28;20625;-78
2022/04/09 02:07:47;;;;;;;11.38;6.60;;;2.50;99.90;;;;;;5092562;28;20080;-78
2022/04/09 02:10:14;;;;;;;8.25;5.03;;;2.40;99.90;;;;;;5083476;28;20103;-78
2022/04/09 02:12:41;;;;;;;14.20;5.80;;;2.40;99.90;;;;;;5074154;28;20028;-78
2022/04/09 02:15:10;;;;;;;11.35;5.60;;;2.30;99.90;;;;;;5074500;28;20063;-78
2022/04/09 02:17:37;;;;;;;11.40;6.47;;;2.20;99.90;;;;;;5072311;28;20130;-79
2022/04/09 02:20:04;;;;;;;10.05;5.60;;;2.10;99.90;;;;;;5078886;28;20574;-78
2022/04/09 02:22:42;;;;;;;9.77;5.45;;;2.10;99.90;;;;;;5092165;28;20043;-79
2022/04/09 02:25:11;;;;;;;7.57;5.20;;;2.00;99.90;;;;;;5075499;28;20119;-79
2022/04/09 02:27:37;;;;;;;7.25;5.63;;;1.90;99.90;;;;;;5072046;28;20020;-80
2022/04/09 02:30:04;;;;;;;12.20;5.43;;;1.80;99.90;;;;;;5079553;28;20024;-78
2022/04/09 02:32:30;;;;;;;9.52;5.82;;;1.70;99.90;;;;;;5092175;28;20536;-79
2022/04/09 02:34:56;;;;;;;10.73;5.68;;;1.60;99.90;;;;;;5091640;28;20107;-79
2022/04/09 02:37:23;;;;;;;11.43;5.15;;;1.50;99.90;;;;;;5084916;28;20025;-79
2022/04/09 02:39:48;;;;;;;10.40;5.97;;;1.40;99.90;;;;;;5077246;28;20072;-79
2022/04/09 02:42:14;;;;;;;9.73;5.75;;;1.30;99.90;;;;;;5091744;28;20052;-79
2022/04/09 02:44:41;;;;;;;6.45;5.32;;;1.20;99.90;;;;;;5091404;28;20035;-79
2022/04/09 02:47:07;;;;;;;10.88;5.40;;;1.20;99.90;;;;;;5091059;28;20101;-79
2022/04/09 02:49:33;;;;;;;13.02;6.32;;;1.10;99.90;;;;;;5090886;28;20100;-78
2022/04/09 02:51:58;;;;;;;10.82;5.78;;;1.20;99.90;;;;;;5091363;28;20468;-78
2022/04/09 02:54:24;;;;;;;12.60;5.40;;;1.10;99.90;;;;;;5086682;28;20028;-78
2022/04/09 02:56:50;;;;;;;10.70;6.22;;;1.00;99.90;;;;;;5091325;28;20016;-78
2022/04/09 02:59:16;;;;;;;11.18;5.53;;;1.00;99.90;;;;;;5090455;28;20035;-78
2022/04/09 03:01:45;;;;;;;8.60;5.28;;;0.90;99.90;;;;;;5092500;28;20469;-80
2022/04/09 03:04:12;;;;;;;13.07;6.20;;;0.90;99.90;;;;;;5092471;28;20404;-80
2022/04/09 03:06:38;;;;;;;12.45;6.10;;;0.80;99.90;;;;;;5091563;28;20028;-78
2022/04/09 03:09:04;;;;;;;11.02;5.57;;;0.80;99.90;;;;;;5074371;28;20058;-79
2022/04/09 03:11:30;;;;;;;16.48;7.20;;;0.80;99.90;;;;;;5071798;28;20025;-79
2022/04/09 03:13:56;;;;;;;10.82;6.25;;;0.70;99.90;;;;;;5071919;28;20017;-79
2022/04/09 03:16:21;;;;;;;16.90;7.30;;;0.90;99.90;;;;;;5071337;28;20489;-79
2022/04/09 03:18:48;;;;;;;12.65;6.72;;;1.00;99.90;;;;;;5068949;28;20115;-79
2022/04/09 03:21:14;;;;;;;16.27;7.45;;;1.10;99.90;;;;;;5068820;28;20111;-78
2022/04/09 03:23:39;;;;;;;12.40;6.22;;;1.20;99.90;;;;;;5068745;28;20457;-78
2022/04/09 03:26:06;;;;;;;11.10;6.55;;;1.30;99.90;;;;;;5069080;28;20036;-78
2022/04/09 03:28:32;;;;;;;17.02;7.68;;;1.40;99.90;;;;;;5067988;28;20032;-77
2022/04/09 03:30:58;;;;;;;14.45;7.45;;;1.50;99.90;;;;;;5084674;28;20028;-78
2022/04/09 03:33:25;;;;;;;14.27;7.45;;;1.50;99.90;;;;;;5091469;28;20016;-78
2022/04/09 03:35:51;;;;;;;17.45;7.18;;;1.50;99.90;;;;;;5075427;28;20500;-79
2022/04/09 03:38:17;;;;;;;14.00;7.65;;;1.40;99.90;;;;;;5070857;28;20028;-78
2022/04/09 03:40:43;;;;;;;16.55;8.30;;;1.30;99.90;;;;;;5082411;28;20422;-78
2022/04/09 03:43:09;;;;;;;15.90;7.75;;;1.20;99.90;;;;;;5090810;28;20020;-78
2022/04/09 03:45:35;;;;;;;17.15;7.53;;;1.10;99.90;;;;;;5091008;28;20499;-78
2022/04/09 03:48:01;;;;;;;16.58;7.75;;;1.10;99.90;;;;;;5081143;28;20032;-78
2022/04/09 03:50:27;;;;;;;14.55;7.15;;;1.00;99.90;;;;;;5079603;28;20039;-78
2022/04/09 03:52:53;;;;;;;19.05;7.90;;;0.80;99.90;;;;;;5091234;28;20649;-77
2022/04/09 03:55:19;;;;;;;16.45;7.93;;;0.80;99.90;;;;;;5091149;28;20029;-78
2022/04/09 03:57:45;;;;;;;14.30;8.10;;;0.70;99.90;;;;;;5091088;28;20028;-79
2022/04/09 04:00:13;;;;;;;15.13;7.30;;;0.60;99.90;;;;;;5091108;28;20028;-78
2022/04/09 04:02:39;;;;;;;18.63;8.43;;;0.60;99.90;;;;;;5085720;28;20488;-78
2022/04/09 04:05:06;;;;;;;14.95;8.05;;;0.50;99.90;;;;;;5070936;28;20032;-78
2022/04/09 04:07:32;;;;;;;15.73;7.68;;;0.40;99.90;;;;;;5070611;28;20031;-77
2022/04/09 04:10:04;;;;;;;14.68;8.02;;;0.40;99.90;;;;;;5076013;28;20020;-77
2022/04/09 04:12:30;;;;;;;19.45;8.20;;;0.30;99.90;;;;;;5090711;28;20028;-78
2022/04/09 04:14:56;;;;;;;20.02;8.40;;;0.20;99.90;;;;;;5090666;28;20040;-78
2022/04/09 04:17:22;;;;;;;17.40;8.65;;;0.30;99.90;;;;;;5085938;28;20127;-78
2022/04/09 04:19:47;;;;;;;18.15;8.32;;;0.30;99.90;;;;;;5067631;28;20063;-78
2022/04/09 04:22:13;;;;;;;20.40;9.52;;;0.20;99.90;;;;;;5067245;28;20305;-78
2022/04/09 04:24:39;;;;;;;23.90;9.82;;;0.30;99.90;;;;;;5066916;28;20051;-78
2022/04/09 04:27:05;;;;;;;18.88;9.52;;;0.30;99.90;;;;;;5066964;28;20028;-78
2022/04/09 04:29:31;;;;;;;20.88;10.05;;;0.30;99.90;;;;;;5087130;28;20021;-78
2022/04/09 04:31:57;;;;;;;21.45;10.00;;;0.30;99.90;;;;;;5087381;28;20030;-78
2022/04/09 04:34:23;;;;;;;21.35;9.52;;;0.30;99.90;;;;;;5069882;28;20021;-79
2022/04/09 04:36:48;;;;;;;19.65;9.80;;;0.40;99.90;;;;;;5068412;28;20060;-78
2022/04/09 04:39:14;;;;;;;20.05;9.73;;;0.30;99.90;;;;;;5087824;28;20039;-78
2022/04/09 04:41:39;;;;;;;19.15;9.65;;;0.50;99.90;;;;;;5090764;28;20030;-78
2022/04/09 04:44:06;;;;;;;19.77;9.13;;;0.50;99.90;;;;;;5089408;28;20036;-78
2022/04/09 04:46:33;;;;;;;20.42;9.35;;;0.40;99.90;;;;;;5089205;28;20373;-78
2022/04/09 04:48:59;;;;;;;17.02;8.40;;;0.30;99.90;;;;;;5086898;28;20020;-79
2022/04/09 04:51:25;;;;;;;15.95;8.27;;;0.20;99.90;;;;;;5090283;28;20358;-79
2022/04/09 04:53:51;;;;;;;16.70;9.32;;;0.30;99.90;;;;;;5105875;28;20100;-79
2022/04/09 04:56:16;;;;;;;19.25;8.70;;;0.30;99.90;;;;;;5090024;28;20476;-78
2022/04/09 04:58:42;;;;;;;19.35;10.10;;;0.30;99.90;;;;;;5090038;28;20490;-78
2022/04/09 05:01:08;;;;;;;19.17;9.43;;;0.30;99.90;;;;;;5090339;28;20039;-77
2022/04/09 05:03:37;;;;;;;23.70;10.95;;;0.50;99.90;;;;;;5082869;28;20086;-78
2022/04/09 05:06:04;;;;;;;23.73;10.98;;;0.50;99.90;;;;;;5070221;28;20469;-78
2022/04/09 05:08:30;;;;;;;26.08;11.18;;;0.50;99.90;;;;;;5081238;28;20038;-78
2022/04/09 05:10:55;;;;;;;27.48;12.18;;;0.60;99.90;;;;;;5090800;28;20020;-78
2022/04/09 05:13:21;;;;;;;22.45;12.15;;;0.60;99.90;;;;;;5093920;28;20028;-78
2022/04/09 05:15:47;;;;;;;26.58;11.20;;;0.60;99.90;;;;;;5093642;28;20131;-78
2022/04/09 05:18:12;;;;;;;24.33;11.60;;;0.50;99.90;;;;;;5088724;28;20469;-78
2022/04/09 05:20:38;;;;;;;18.55;10.30;;;0.50;99.90;;;;;;5073563;28;20039;-78
2022/04/09 05:23:04;;;;;;;27.65;11.55;;;0.40;99.90;;;;;;5074009;28;20484;-78
2022/04/09 05:25:31;;;;;;;27.10;12.88;;;0.60;99.90;;;;;;5073580;28;20051;-79
2022/04/09 05:28:05;;;;;;;24.98;12.48;;;0.60;99.90;;;;;;5079530;28;20024;-78
2022/04/09 05:30:32;;;;;;;22.08;11.43;;;0.60;99.90;;;;;;5093041;28;20036;-78
2022/04/09 05:32:58;;;;;;;23.02;11.80;;;0.60;99.90;;;;;;5091760;28;20069;-78
2022/04/09 05:35:24;;;;;;;23.17;11.90;;;0.50;99.90;;;;;;5073255;28;20021;-79
2022/04/09 05:37:51;;;;;;;28.30;12.60;;;0.50;99.90;;;;;;5087588;28;20016;-78
2022/04/09 05:40:17;;;;;;;27.95;12.32;;;0.60;99.90;;;;;;5091464;28;20056;-78
2022/04/09 05:42:43;;;;;;;28.83;12.77;;;0.60;99.90;;;;;;5090069;28;20016;-77
2022/04/09 05:45:10;;;;;;;24.52;12.57;;;0.70;99.90;;;;;;5090041;28;20024;-77
2022/04/09 05:47:43;;;;;;;25.52;12.45;;;0.70;99.90;;;;;;5088305;28;20028;-78
2022/04/09 05:50:09;;;;;;;30.05;13.80;;;0.70;99.90;;;;;;5086124;28;20034;-77
2022/04/09 05:52:36;;;;;;;27.75;13.65;;;0.70;99.90;;;;;;5092707;28;20076;-78
2022/04/09 05:55:03;;;;;;;29.95;13.57;;;0.80;99.90;;;;;;5093219;28;20051;-77
2022/04/09 05:57:30;;;;;;;26.25;12.88;;;0.80;99.90;;;;;;5092994;28;20023;-77
2022/04/09 05:59:55;;;;;;;28.35;13.27;;;0.80;99.90;;;;;;5093110;28;20098;-78
2022/04/09 06:02:21;;;;;;;24.95;12.80;;;0.80;99.90;;;;;;5089762;28;20524;-77
2022/04/09 06:04:47;;;;;;;28.02;12.45;;;0.70;99.90;;;;;;5079881;28;20105;-77
2022/04/09 06:07:13;;;;;;;25.98;12.60;;;0.70;99.90;;;;;;5082786;28;20464;-77
2022/04/09 06:09:41;;;;;;;27.70;13.25;;;0.70;99.90;;;;;;5092557;28;20178;-78
2022/04/09 06:12:09;;;;;;;26.92;11.75;;;0.60;99.90;;;;;;5091859;28;20013;-77
2022/04/09 06:14:35;;;;;;;25.33;12.05;;;0.60;99.90;;;;;;5080280;28;20028;-77
2022/04/09 06:17:02;;;;;;;24.00;12.32;;;0.70;99.90;;;;;;5090149;28;20070;-78
2022/04/09 06:19:29;;;;;;;30.65;12.35;;;0.70;99.90;;;;;;5071860;28;20102;-78
2022/04/09 06:21:56;;;;;;;25.60;12.27;;;0.80;99.90;;;;;;5067983;28;20039;-77
2022/04/09 06:24:22;;;;;;;25.60;13.15;;;0.90;99.90;;;;;;5067733;28;20025;-76
2022/04/09 06:26:48;;;;;;;30.45;13.80;;;1.00;99.90;;;;;;5085932;28;20032;-78
2022/04/09 06:29:14;;;;;;;26.70;12.20;;;1.00;99.90;;;;;;5087341;28;20036;-75
2022/04/09 06:31:39;;;;;;;28.10;12.55;;;1.00;99.90;;;;;;5088599;28;20032;-77
2022/04/09 06:34:05;;;;;;;25.77;12.48;;;1.10;99.90;;;;;;5081925;28;20418;-77
2022/04/09 06:36:31;;;;;;;24.52;11.98;;;1.20;99.90;;;;;;5069010;28;20038;-77
2022/04/09 06:38:56;;;;;;;25.85;11.57;;;1.30;99.90;;;;;;5082169;28;20103;-77
2022/04/09 06:41:22;;;;;;;26.92;12.18;;;1.50;99.90;;;;;;5087073;28;20060;-77
2022/04/09 06:43:48;;;;;;;24.42;11.10;;;1.60;99.90;;;;;;5089071;28;20028;-77
2022/04/09 06:46:15;;;;;;;25.90;12.10;;;1.60;99.90;;;;;;5074611;28;20029;-77
2022/04/09 06:48:41;;;;;;;23.95;11.52;;;1.60;99.90;;;;;;5075860;28;20472;-77
2022/04/09 06:51:07;;;;;;;20.55;11.57;;;1.70;99.90;;;;;;5075408;28;20031;-77
2022/04/09 06:53:38;;;;;;;23.48;10.85;;;1.70;99.90;;;;;;5074040;28;20055;-78
2022/04/09 06:56:04;;;;;;;19.45;10.45;;;1.80;99.90;;;;;;5079580;28;20031;-77
2022/04/09 06:58:30;;;;;;;26.73;11.85;;;1.80;99.90;;;;;;5077697;28;20068;-77
2022/04/09 07:00:56;;;;;;;27.10;12.38;;;1.90;99.90;;;;;;5075060;28;20036;-77
2022/04/09 07:03:22;;;;;;;21.77;11.02;;;2.00;99.90;;;;;;5068125;28;20498;-77
2022/04/09 07:05:47;;;;;;;24.55;11.43;;;2.00;99.90;;;;;;5073685;28;20028;-77
2022/04/09 07:08:13;;;;;;;23.98;12.23;;;2.10;99.90;;;;;;5088366;28;20106;-78
2022/04/09 07:10:39;;;;;;;23.02;11.40;;;2.20;99.90;;;;;;5087129;28;20020;-77
2022/04/09 07:13:08;;;;;;;19.88;10.77;;;2.30;99.90;;;;;;5088642;28;20059;-78
2022/04/09 07:15:34;;;;;;;21.70;10.70;;;2.50;99.90;;;;;;5088473;28;20545;-79
2022/04/09 07:18:00;;;;;;;21.23;10.05;;;2.60;99.90;;;;;;5088399;28;20073;-77
2022/04/09 07:20:26;;;;;;;20.02;9.82;;;2.70;99.90;;;;;;5087654;28;20052;-78
2022/04/09 07:22:52;;;;;;;20.38;10.15;;;2.80;99.90;;;;;;5088229;28;20131;-76
2022/04/09 07:25:18;;;;;;;22.27;10.10;;;2.90;99.90;;;;;;5087753;28;20101;-77
2022/04/09 07:27:45;;;;;;;20.42;10.75;;;3.00;99.90;;;;;;5087627;28;20484;-77
2022/04/09 07:30:16;;;;;;;15.82;9.13;;;3.10;99.90;;;;;;5086231;28;20035;-77
2022/04/09 07:32:43;;;;;;;21.80;9.73;;;3.20;99.90;;;;;;5086496;28;20526;-77
2022/04/09 07:35:10;;;;;;;19.30;9.60;;;3.20;99.90;;;;;;5072821;28;20048;-76
2022/04/09 07:37:51;;;;;;;15.02;8.48;;;3.30;99.90;;;;;;5069726;28;20035;-77
2022/04/09 07:40:19;;;;;;;20.50;9.27;;;3.40;99.90;;;;;;5087800;28;20036;-77
2022/04/09 07:42:45;;;;;;;19.42;9.18;;;3.50;99.90;;;;;;5087965;28;20027;-78
2022/04/09 07:45:13;;;;;;;17.05;9.00;;;3.60;99.90;;;;;;5088235;28;20051;-77
2022/04/09 07:47:39;;;;;;;20.30;10.57;;;3.70;99.90;;;;;;5070075;28;20035;-75
2022/04/09 07:50:07;;;;;;;18.83;9.07;;;3.80;99.90;;;;;;5085347;28;20031;-78
2022/04/09 07:52:33;;;;;;;15.73;8.15;;;3.90;99.90;;;;;;5067621;28;20056;-78
2022/04/09 07:54:59;;;;;;;16.95;8.90;;;4.00;99.90;;;;;;5067324;28;20056;-77
2022/04/09 07:57:25;;;;;;;14.93;7.82;;;4.00;99.90;;;;;;5084836;28;20077;-77
2022/04/09 07:59:55;;;;;;;16.27;7.40;;;4.20;99.90;;;;;;5087297;28;20475;-77
2022/04/09 08:02:22;;;;;;;15.73;7.82;;;4.30;99.90;;;;;;5087342;28;20035;-77
2022/04/09 08:04:48;;;;;;;12.27;6.38;;;4.40;99.90;;;;;;5079904;28;20112;-77
2022/04/09 08:07:14;;;;;;;17.42;6.07;;;4.50;99.90;;;;;;5083708;28;20143;-78
2022/04/09 08:09:39;;;;;;;11.35;5.50;;;4.60;99.90;;;;;;5087434;28;20362;-76
2022/04/09 08:12:05;;;;;;;13.20;5.88;;;4.70;99.90;;;;;;5087483;28;20034;-78
2022/04/09 08:14:33;;;;;;;9.45;4.55;;;4.80;99.90;;;;;;5080296;28;20423;-76
2022/04/09 08:16:59;;;;;;;12.13;5.30;;;4.80;99.90;;;;;;5069024;28;20116;-77
2022/04/09 08:19:26;;;;;;;12.18;6.03;;;4.90;99.90;;;;;;5084028;28;20031;-78
2022/04/09 08:21:55;;;;;;;14.60;5.53;;;4.90;99.90;;;;;;5082894;28;20050;-79
2022/04/09 08:24:20;;;;;;;14.15;5.70;;;5.00;99.90;;;;;;5080368;28;20030;-78
2022/04/09 08:26:46;;;;;;;14.13;5.63;;;5.10;99.90;;;;;;5086165;28;20111;-78
2022/04/09 08:29:16;;;;;;;11.63;5.35;;;5.10;99.90;;;;;;5078503;28;20012;-78
2022/04/09 08:31:43;;;;;;;11.40;5.15;;;5.20;99.90;;;;;;5067627;28;20032;-79
2022/04/09 08:34:09;;;;;;;11.82;4.82;;;5.20;99.90;;;;;;5080263;28;20028;-78
2022/04/09 08:36:35;;;;;;;13.32;4.68;;;5.20;99.90;;;;;;5089680;28;20038;-78
2022/04/09 08:39:01;;;;;;;9.07;4.15;;;5.30;99.90;;;;;;5089810;28;20024;-78
2022/04/09 08:41:26;;;;;;;8.68;4.53;;;5.30;99.90;;;;;;5088367;28;20024;-77
2022/04/09 08:43:54;;;;;;;10.50;5.40;;;5.40;99.90;;;;;;5092024;28;20508;-78
2022/04/09 08:46:20;;;;;;;11.25;5.18;;;5.40;99.90;;;;;;5091097;28;20062;-78
2022/04/09 08:48:47;;;;;;;7.85;4.40;;;5.50;99.90;;;;;;5089583;28;20492;-78
2022/04/09 08:51:13;;;;;;;8.63;3.85;;;5.60;99.90;;;;;;5090890;28;20059;-78
2022/04/09 08:53:40;;;;;;;8.00;4.07;;;5.70;99.90;;;;;;5090888;28;20063;-77
2022/04/09 08:56:07;;;;;;;11.80;3.78;;;5.80;99.90;;;;;;5077783;28;20496;-78
2022/04/09 08:58:33;;;;;;;6.63;3.85;;;5.90;99.90;;;;;;5081566;28;20079;-78
2022/04/09 09:00:59;;;;;;;8.82;4.43;;;5.90;99.90;;;;;;5089353;28;20070;-79
2022/04/09 09:03:24;;;;;;;8.90;3.70;;;6.00;99.90;;;;;;5090540;28;20035;-79
2022/04/09 09:05:52;;;;;;;6.75;3.22;;;6.00;99.90;;;;;;5088622;28;20040;-79
2022/04/09 09:08:43;;;;;;;6.88;3.58;;;6.10;99.90;;;;;;5090355;28;20107;-78
2022/04/09 09:11:09;;;;;;;6.75;3.70;;;6.10;99.90;;;;;;5090968;28;20036;-79
2022/04/09 09:13:52;;;;;;;12.73;4.22;;;6.20;99.90;;;;;;5090471;28;20031;-79
2022/04/09 09:16:25;;;;;;;7.00;3.45;;;6.30;99.90;;;;;;5090539;28;20101;-79
2022/04/09 09:18:53;;;;;;;7.55;3.45;;;6.40;99.90;;;;;;5089953;28;20388;-79
2022/04/09 09:21:23;;;;;;;7.15;3.58;;;6.50;99.90;;;;;;5090250;28;20039;-80
2022/04/09 09:23:52;;;;;;;5.50;3.00;;;6.50;99.90;;;;;;5086846;28;20016;-76
2022/04/09 09:26:21;;;;;;;5.60;3.97;;;6.50;99.90;;;;;;5078524;28;20490;-77
2022/04/09 09:28:56;;;;;;;6.75;3.25;;;6.50;99.90;;;;;;5090177;28;20063;-78
2022/04/09 09:31:42;;;;;;;5.70;3.03;;;6.60;99.90;;;;;;5074140;28;20024;-78
2022/04/09 09:34:21;;;;;;;7.15;3.15;;;6.70;99.90;;;;;;5074074;28;20024;-79
2022/04/09 09:36:48;;;;;;;9.98;3.22;;;6.70;99.90;;;;;;5082524;28;20043;-79
2022/04/09 09:39:20;;;;;;;6.88;2.92;;;6.80;99.90;;;;;;5080185;28;20040;-78
2022/04/09 09:41:48;;;;;;;8.38;3.20;;;6.90;99.90;;;;;;5068553;28;20016;-79
2022/04/09 09:44:14;;;;;;;7.65;3.17;;;7.00;99.90;;;;;;5087339;28;20544;-80
2022/04/09 09:46:40;;;;;;;8.60;2.95;;;7.20;99.90;;;;;;5090187;28;20419;-77
2022/04/09 09:49:06;;;;;;;7.30;2.85;;;7.30;99.90;;;;;;5088725;28;20025;-80
2022/04/09 09:51:31;;;;;;;5.60;2.60;;;7.30;99.90;;;;;;5090026;28;20082;-79
2022/04/09 09:54:07;;;;;;;4.88;2.60;;;7.30;99.90;;;;;;5089744;28;20432;-80
2022/04/09 09:56:36;;;;;;;6.18;2.78;;;7.40;99.90;;;;;;5071216;28;20028;-78
2022/04/09 09:59:06;;;;;;;4.35;1.60;;;7.70;99.90;;;;;;5081615;28;20024;-81
2022/04/09 10:01:36;;;;;;;4.38;1.55;;;7.90;99.90;;;;;;5088718;28;20519;-80
2022/04/09 10:04:04;;;;;;;3.42;1.80;;;8.10;99.90;;;;;;5089784;28;20024;-81
2022/04/09 10:06:32;;;;;;;3.58;1.40;;;8.10;99.90;;;;;;5089684;28;20576;-78
2022/04/09 10:08:58;;;;;;;3.25;1.45;;;8.20;99.90;;;;;;5081537;28;20032;-78
2022/04/09 10:11:26;;;;;;;5.07;1.70;;;8.30;99.90;;;;;;5069708;28;20077;-79
2022/04/09 10:13:55;;;;;;;5.63;1.90;;;8.60;99.90;;;;;;5085286;28;20349;-79
2022/04/09 10:16:23;;;;;;;3.22;1.45;;;8.70;99.90;;;;;;5069164;28;20040;-79
2022/04/09 10:18:49;;;;;;;4.57;1.10;;;8.80;93.70;;;;;;5088055;28;20141;-79
2022/04/09 10:21:18;;;;;;;1.83;0.93;;;8.80;91.50;;;;;;5089079;28;20024;-80
2022/04/09 10:23:45;;;;;;;5.45;0.70;;;8.60;75.30;;;;;;5083968;28;20024;-80
2022/04/09 10:26:11;;;;;;;1.38;0.80;;;8.30;59.30;;;;;;5073915;28;20037;-79
2022/04/09 10:28:39;;;;;;;2.33;0.80;;;8.20;67.80;;;;;;5075044;28;20380;-79
2022/04/09 10:31:23;;;;;;;2.97;1.13;;;8.20;66.00;;;;;;5088923;28;20051;-79
2022/04/09 10:33:56;;;;;;;3.33;1.00;;;8.40;73.20;;;;;;5089096;28;20111;-79
2022/04/09 10:36:40;;;;;;;2.85;1.10;;;8.70;75.40;;;;;;5089233;28;20449;-78
2022/04/09 10:39:20;;;;;;;2.65;0.93;;;9.00;75.00;;;;;;5088000;28;20027;-79
2022/04/09 10:41:45;;;;;;;6.32;0.80;;;9.10;64.80;;;;;;5075922;28;20127;-78
2022/04/09 10:44:31;;;;;;;3.70;1.00;;;9.10;58.00;;;;;;5088995;28;20092;-78
2022/04/09 10:47:01;;;;;;;4.13;1.40;;;9.10;67.10;;;;;;5088699;28;20024;-77
2022/04/09 10:49:28;;;;;;;2.15;1.20;;;9.20;99.90;;;;;;5087774;28;20032;-81
2022/04/09 10:52:14;;;;;;;5.90;2.28;;;9.30;97.20;;;;;;5087426;28;20134;-78
2022/04/09 10:54:43;;;;;;;4.13;2.53;;;9.50;98.00;;;;;;5088615;28;20036;-79
2022/04/09 10:57:40;;;;;;;5.68;2.15;;;9.60;94.10;;;;;;5087779;28;20491;-78
2022/04/09 11:00:07;;;;;;;7.53;1.20;;;9.70;81.40;;;;;;5087940;28;20032;-78
2022/04/09 11:02:33;;;;;;;5.00;1.77;;;9.80;63.70;;;;;;5088420;28;20099;-80
2022/04/09 11:05:20;;;;;;;4.38;1.42;;;9.90;90.70;;;;;;5088390;28;20110;-79
2022/04/09 11:08:07;;;;;;;2.90;0.90;;;10.00;88.20;;;;;;5088275;28;20024;-79
2022/04/09 11:10:33;;;;;;;4.88;1.67;;;10.00;78.80;;;;;;5084067;28;20082;-76
2022/04/09 11:12:59;;;;;;;4.13;1.52;;;10.20;95.80;;;;;;5082408;28;20035;-78
2022/04/09 11:15:27;;;;;;;5.47;1.40;;;10.30;81.80;;;;;;5088506;28;20044;-78
2022/04/09 11:18:02;;;;;;;6.30;1.77;;;10.10;79.40;;;;;;5088338;28;20047;-78
2022/04/09 11:20:33;;;;;;;5.22;1.63;;;9.90;87.10;;;;;;5088454;28;20044;-79
2022/04/09 11:23:12;;;;;;;5.53;1.40;;;10.10;82.20;;;;;;5087547;28;20024;-78
2022/04/09 11:25:43;;;;;;;9.65;1.42;;;10.30;75.00;;;;;;5075382;28;20032;-78
2022/04/09 11:28:19;;;;;;;3.50;1.42;;;10.50;78.60;;;;;;5077443;28;20049;-79
2022/04/09 11:31:00;;;;;;;4.45;1.67;;;10.30;86.10;;;;;;5070629;28;20025;-77
2022/04/09 11:33:27;;;;;;;8.40;1.48;;;10.10;95.10;;;;;;5068027;28;20086;-77
2022/04/09 11:35:53;;;;;;;3.60;1.48;;;10.00;94.80;;;;;;5067711;28;20543;-78
2022/04/09 11:38:18;;;;;;;5.82;1.70;;;9.90;92.70;;;;;;5072156;28;20422;-81
2022/04/09 11:40:47;;;;;;;5.38;1.75;;;9.90;93.20;;;;;;5084968;28;20032;-83
2022/04/09 11:43:19;;;;;;;5.95;1.60;;;9.90;85.20;;;;;;5076291;28;20453;-83
2022/04/09 11:45:46;;;;;;;4.97;1.30;;;9.80;93.00;;;;;;5086539;28;20031;-77
2022/04/09 11:48:22;;;;;;;2.78;1.25;;;9.90;89.10;;;;;;5088112;28;20432;-82
2022/04/09 11:50:49;;;;;;;6.20;1.70;;;10.10;93.80;;;;;;5083661;28;20111;-84
2022/04/09 11:53:15;;;;;;;5.25;1.60;;;10.30;90.40;;;;;;5086371;28;20031;-80
2022/04/09 11:55:41;;;;;;;5.10;1.45;;;10.50;73.90;;;;;;5076465;28;20411;-80
2022/04/09 11:58:08;;;;;;;4.75;1.50;;;10.60;69.70;;;;;;5084117;28;20020;-80
2022/04/09 12:00:42;;;;;;;5.75;1.60;;;10.60;70.70;;;;;;5073572;28;20035;-80
2022/04/09 12:03:09;;;;;;;5.80;1.58;;;10.50;84.10;;;;;;5085913;28;20035;-81
2022/04/09 12:05:37;;;;;;;5.07;1.40;;;10.90;75.30;;;;;;5086232;28;20056;-81
2022/04/09 12:08:04;;;;;;;10.20;1.63;;;11.30;75.20;;;;;;5085857;28;20044;-80
2022/04/09 12:10:30;;;;;;;5.78;1.60;;;11.50;71.90;;;;;;5073287;28;20016;-80
2022/04/09 12:12:58;;;;;;;5.85;1.48;;;11.60;79.60;;;;;;5081196;28;20229;-83
2022/04/09 12:15:35;;;;;;;4.53;1.30;;;11.80;67.00;;;;;;5082473;28;20189;-81
2022/04/09 12:18:05;;;;;;;8.10;1.73;;;12.00;57.40;;;;;;5077078;28;20017;-80
2022/04/09 12:20:40;;;;;;;4.10;1.80;;;12.00;55.50;;;;;;5078163;28;20036;-81
2022/04/09 12:23:08;;;;;;;7.47;1.85;;;12.10;61.60;;;;;;5072120;28;20020;-81
2022/04/09 12:25:42;;;;;;;5.78;2.10;;;12.30;60.50;;;;;;5088900;28;20111;-85
2022/04/09 12:28:24;;;;;;;7.43;2.40;;;12.30;64.80;;;;;;5072536;28;20055;-84
2022/04/09 12:30:52;;;;;;;;;;;12.20;66.80;;;;;;5084842;28;20059;-83
2022/04/09 12:33:19;;;;;;;5.53;1.88;;;11.70;66.20;;;;;;5092120;28;19911;-83
2022/04/09 12:35:46;;;;;;;4.97;2.13;;;11.10;71.20;;;;;;5093678;28;20460;-81
2022/04/09 12:38:29;;;;;;;5.90;2.20;;;11.10;79.90;;;;;;5081970;28;20044;-83
2022/04/09 12:41:04;;;;;;;5.28;1.90;;;11.80;80.80;;;;;;5073274;28;20047;-83
2022/04/09 12:43:34;;;;;;;7.32;2.33;;;12.10;75.40;;;;;;5086325;28;20024;-81
2022/04/09 12:46:05;;;;;;;4.35;1.92;;;11.90;69.50;;;;;;5092811;28;20055;-83
2022/04/09 12:48:39;;;;;;;6.15;2.15;;;11.40;70.10;;;;;;5090204;28;20032;-84